createdAt,value
2022-09-30T00:00:29.521Z,9.18
2022-09-30T00:03:34.741Z,9.02
2022-09-30T00:06:40.112Z,9.30
2022-09-30T00:09:48.958Z,9.77
2022-09-30T00:12:54.802Z,9.18
2022-09-30T00:15:59.993Z,8.63
2022-09-30T00:19:05.458Z,8.88
2022-09-30T00:22:10.556Z,8.43
2022-09-30T00:25:18.928Z,8.00
2022-09-30T00:28:24.015Z,8.00
2022-09-30T00:31:30.220Z,8.35
2022-09-30T00:34:35.567Z,8.15
2022-09-30T00:37:40.922Z,9.32
2022-09-30T00:40:49.424Z,7.32
2022-09-30T00:43:54.980Z,7.63
2022-09-30T00:47:00.358Z,7.78
2022-09-30T00:50:08.026Z,8.60
2022-09-30T00:53:15.511Z,8.05
2022-09-30T00:56:25.484Z,8.17
2022-09-30T00:59:33.598Z,8.10
2022-09-30T01:02:38.787Z,7.97
2022-09-30T01:05:43.981Z,8.70
2022-09-30T01:08:49.924Z,8.35
2022-09-30T01:11:57.653Z,9.85
2022-09-30T01:15:03.132Z,8.50
2022-09-30T01:18:11.568Z,7.70
2022-09-30T01:21:33.873Z,8.48
2022-09-30T01:24:44.152Z,8.27
2022-09-30T01:28:03.892Z,8.40
2022-09-30T01:31:22.836Z,8.60
2022-09-30T01:34:32.133Z,8.38
2022-09-30T01:37:43.350Z,8.57
2022-09-30T01:40:50.753Z,8.93
2022-09-30T01:44:00.605Z,8.40
2022-09-30T01:47:11.161Z,7.93
2022-09-30T01:50:21.027Z,8.38
2022-09-30T01:53:30.843Z,7.93
2022-09-30T01:56:38.994Z,7.72
2022-09-30T01:59:46.317Z,7.50
2022-09-30T02:02:56.836Z,7.10
2022-09-30T02:06:05.342Z,7.40
2022-09-30T02:09:14.779Z,7.13
2022-09-30T02:12:22.499Z,7.53
2022-09-30T02:15:28.492Z,6.95
2022-09-30T02:18:39.590Z,7.00
2022-09-30T02:21:46.464Z,6.95
2022-09-30T02:24:54.973Z,7.03
2022-09-30T02:28:01.976Z,7.13
2022-09-30T02:31:08.025Z,7.63
2022-09-30T02:34:17.724Z,6.68
2022-09-30T02:37:25.159Z,7.05
2022-09-30T02:40:32.150Z,6.82
2022-09-30T02:43:37.346Z,7.90
2022-09-30T02:46:46.678Z,8.07
2022-09-30T02:49:56.306Z,9.07
2022-09-30T02:53:04.133Z,7.65
2022-09-30T02:56:15.626Z,8.23
2022-09-30T02:59:20.826Z,7.43
2022-09-30T03:02:26.477Z,7.70
2022-09-30T03:05:34.267Z,8.95
2022-09-30T03:08:39.617Z,8.68
2022-09-30T03:11:44.599Z,8.48
2022-09-30T03:15:07.483Z,9.00
2022-09-30T03:18:24.396Z,8.45
2022-09-30T03:21:37.839Z,7.70
2022-09-30T03:24:53.611Z,9.05
2022-09-30T03:28:08.199Z,8.02
2022-09-30T03:31:18.865Z,8.02
2022-09-30T03:34:27.857Z,8.20
2022-09-30T03:37:39.256Z,8.50
2022-09-30T03:40:46.855Z,9.13
2022-09-30T03:43:53.757Z,8.15
2022-09-30T03:47:00.565Z,9.63
2022-09-30T03:50:07.436Z,9.80
2022-09-30T03:53:16.385Z,8.73
2022-09-30T03:56:28.744Z,9.57
2022-09-30T03:59:33.880Z,10.60
2022-09-30T04:02:39.480Z,10.32
2022-09-30T04:05:44.419Z,10.60
2022-09-30T04:08:54.248Z,10.02
2022-09-30T04:11:59.175Z,11.38
2022-09-30T04:15:04.392Z,11.07
2022-09-30T04:18:09.928Z,12.80
2022-09-30T04:21:16.112Z,10.90
2022-09-30T04:24:24.220Z,9.30
2022-09-30T04:27:30.542Z,10.40
2022-09-30T04:30:35.635Z,9.70
2022-09-30T04:33:40.881Z,9.98
2022-09-30T04:36:45.926Z,9.15
2022-09-30T04:39:53.578Z,8.80
2022-09-30T04:42:59.729Z,8.90
2022-09-30T04:46:05.056Z,8.93
2022-09-30T04:49:10.055Z,7.63
2022-09-30T04:52:15.200Z,8.57
2022-09-30T04:55:23.085Z,10.05
2022-09-30T04:58:28.110Z,9.10
2022-09-30T05:01:33.482Z,9.68
2022-09-30T05:04:38.482Z,8.35
2022-09-30T05:07:44.035Z,8.85
2022-09-30T05:10:57.519Z,8.90
2022-09-30T05:14:03.071Z,9.98
2022-09-30T05:17:08.922Z,8.63
2022-09-30T05:20:17.647Z,9.68
2022-09-30T05:23:25.219Z,8.50
2022-09-30T05:26:33.216Z,10.02
2022-09-30T05:29:38.998Z,9.48
2022-09-30T05:32:44.064Z,8.75
2022-09-30T05:35:49.164Z,9.70
2022-09-30T05:38:54.391Z,9.05
2022-09-30T05:42:02.411Z,8.93
2022-09-30T05:45:07.717Z,7.93
2022-09-30T05:48:12.947Z,8.93
2022-09-30T05:51:18.094Z,8.60
2022-09-30T05:54:23.181Z,8.40
2022-09-30T05:57:31.025Z,8.35
2022-09-30T06:00:35.940Z,8.80
2022-09-30T06:03:41.129Z,8.95
2022-09-30T06:06:46.091Z,8.52
2022-09-30T06:09:51.312Z,8.90
2022-09-30T06:12:59.365Z,15.98
2022-09-30T06:16:05.418Z,8.48
2022-09-30T06:19:10.660Z,9.38
2022-09-30T06:22:16.522Z,8.75
2022-09-30T06:25:22.708Z,8.15
2022-09-30T06:28:30.464Z,10.68
2022-09-30T06:31:35.853Z,7.55
2022-09-30T06:34:40.870Z,8.30
2022-09-30T06:37:47.800Z,8.52
2022-09-30T06:40:53.209Z,9.55
2022-09-30T06:44:04.767Z,9.05
2022-09-30T06:47:21.293Z,8.85
2022-09-30T06:50:28.031Z,9.88
2022-09-30T06:53:34.801Z,8.68
2022-09-30T06:56:40.155Z,9.52
2022-09-30T06:59:47.846Z,9.68
2022-09-30T07:02:54.175Z,11.30
2022-09-30T07:06:00.393Z,9.63
2022-09-30T07:09:05.479Z,9.75
2022-09-30T07:12:10.588Z,9.40
2022-09-30T07:15:18.228Z,8.55
2022-09-30T07:18:23.600Z,8.63
2022-09-30T07:21:28.678Z,8.63
2022-09-30T07:24:35.192Z,9.55
2022-09-30T07:27:40.410Z,9.18
2022-09-30T07:30:48.201Z,10.40
2022-09-30T07:33:55.562Z,9.52
2022-09-30T07:37:01.029Z,8.88
2022-09-30T07:40:07.465Z,9.85
2022-09-30T07:43:13.858Z,8.95
2022-09-30T07:46:24.726Z,9.32
2022-09-30T07:49:30.428Z,9.77
2022-09-30T07:52:35.545Z,9.43
2022-09-30T07:55:40.581Z,9.20
2022-09-30T07:58:45.849Z,10.73
2022-09-30T08:01:54.088Z,9.95
2022-09-30T08:04:59.206Z,10.57
2022-09-30T08:08:07.242Z,9.60
2022-09-30T08:11:12.473Z,10.07
2022-09-30T08:14:17.992Z,11.20
2022-09-30T08:17:25.881Z,9.98
2022-09-30T08:20:32.081Z,11.03
2022-09-30T08:23:37.309Z,10.50
2022-09-30T08:26:42.614Z,11.65
2022-09-30T08:29:55.053Z,10.10
2022-09-30T08:33:03.847Z,11.82
2022-09-30T08:36:10.565Z,12.90
2022-09-30T08:39:15.649Z,11.77
2022-09-30T08:42:38.652Z,12.40
2022-09-30T08:45:47.990Z,11.80
2022-09-30T08:49:02.643Z,12.18
2022-09-30T08:52:24.483Z,11.65
2022-09-30T08:55:38.775Z,15.48
2022-09-30T08:58:45.401Z,12.85
2022-09-30T09:01:51.920Z,11.90
2022-09-30T09:05:01.235Z,12.07
2022-09-30T09:08:11.628Z,12.52
2022-09-30T09:11:20.677Z,12.30
2022-09-30T09:14:32.646Z,12.57
2022-09-30T09:18:04.300Z,12.02
2022-09-30T09:21:25.325Z,12.23
2022-09-30T09:24:34.797Z,12.13
2022-09-30T09:27:45.169Z,13.23
2022-09-30T09:30:53.012Z,12.98
2022-09-30T09:33:59.854Z,13.00
2022-09-30T09:37:11.026Z,13.60
2022-09-30T09:40:21.473Z,12.60
2022-09-30T09:43:33.532Z,13.20
2022-09-30T09:46:44.121Z,11.18
2022-09-30T09:49:52.697Z,11.63
2022-09-30T09:53:04.045Z,12.02
2022-09-30T09:56:19.097Z,13.15
2022-09-30T09:59:24.625Z,12.43
2022-09-30T10:02:31.822Z,12.20
2022-09-30T10:05:40.149Z,14.25
2022-09-30T10:11:52.585Z,12.93
2022-09-30T10:15:12.250Z,13.43
2022-09-30T10:18:20.694Z,12.55
2022-09-30T10:21:26.925Z,12.50
2022-09-30T10:24:32.757Z,13.10
2022-09-30T10:27:40.586Z,12.30
2022-09-30T10:30:47.885Z,13.15
2022-09-30T10:33:58.360Z,13.43
2022-09-30T10:37:05.270Z,12.73
2022-09-30T10:40:12.599Z,13.73
2022-09-30T10:43:24.612Z,13.73
2022-09-30T10:46:31.117Z,13.60
2022-09-30T10:49:39.096Z,13.07
2022-09-30T10:52:49.634Z,13.13
2022-09-30T10:55:56.439Z,13.90
2022-09-30T10:59:05.404Z,13.35
2022-09-30T11:02:26.520Z,13.82
2022-09-30T11:05:32.588Z,11.85
2022-09-30T11:08:42.259Z,12.23
2022-09-30T11:11:49.203Z,11.60
2022-09-30T11:15:01.050Z,11.18
2022-09-30T11:18:10.537Z,11.52
2022-09-30T11:21:17.670Z,12.68
2022-09-30T11:24:27.354Z,11.73
2022-09-30T11:27:37.084Z,11.05
2022-09-30T11:30:47.708Z,11.63
2022-09-30T11:34:02.014Z,10.32
2022-09-30T11:37:10.053Z,10.98
2022-09-30T11:40:34.039Z,11.88
2022-09-30T11:43:44.181Z,11.07
2022-09-30T11:47:06.306Z,11.50
2022-09-30T11:50:22.779Z,10.68
2022-09-30T11:53:33.919Z,10.13
2022-09-30T11:56:42.445Z,10.52
2022-09-30T11:59:50.685Z,10.07
2022-09-30T12:06:07.531Z,9.80
2022-09-30T12:09:17.836Z,9.60
2022-09-30T12:12:23.448Z,11.48
2022-09-30T12:15:29.209Z,10.95
2022-09-30T12:18:35.844Z,15.95
2022-09-30T12:21:46.033Z,11.13
2022-09-30T12:24:51.051Z,11.65
2022-09-30T12:27:59.310Z,10.35
2022-09-30T12:31:07.915Z,12.48
2022-09-30T12:37:27.678Z,10.75
2022-09-30T12:40:43.170Z,10.77
2022-09-30T12:44:09.274Z,10.52
2022-09-30T12:47:20.686Z,12.73
2022-09-30T12:50:28.789Z,12.13
2022-09-30T12:53:37.549Z,12.88
2022-09-30T12:56:44.217Z,11.50
2022-09-30T12:59:53.998Z,12.38
2022-09-30T13:03:00.285Z,11.30
2022-09-30T13:06:07.054Z,21.80
2022-09-30T13:09:25.497Z,14.10
2022-09-30T13:12:32.079Z,11.60
2022-09-30T13:15:44.375Z,12.38
2022-09-30T13:19:05.190Z,12.45
2022-09-30T13:22:37.534Z,12.32
2022-09-30T13:25:58.238Z,12.88
2022-09-30T13:29:18.690Z,12.30
2022-09-30T13:32:39.289Z,11.90
2022-09-30T13:35:53.064Z,12.65
2022-09-30T13:39:20.007Z,12.43
2022-09-30T13:42:29.840Z,13.03
2022-09-30T13:45:39.801Z,16.13
2022-09-30T13:48:51.557Z,14.20
2022-09-30T13:51:57.824Z,14.38
2022-09-30T13:55:06.862Z,13.98
2022-09-30T13:58:19.439Z,14.38
2022-09-30T14:01:32.601Z,13.07
2022-09-30T14:04:53.269Z,13.93
2022-09-30T14:08:08.989Z,12.77
2022-09-30T14:11:29.965Z,15.00
2022-09-30T14:14:48.615Z,15.27
2022-09-30T14:18:04.438Z,14.05
2022-09-30T14:21:23.446Z,15.15
2022-09-30T14:24:31.726Z,14.68
2022-09-30T14:27:44.394Z,12.90
2022-09-30T14:31:08.359Z,14.65
2022-09-30T14:34:14.152Z,14.50
2022-09-30T14:37:26.510Z,14.82
2022-09-30T14:40:32.624Z,14.00
2022-09-30T14:43:42.851Z,15.23
2022-09-30T14:46:49.318Z,14.40
2022-09-30T14:49:54.982Z,15.35
2022-09-30T14:53:04.000Z,16.05
2022-09-30T14:56:22.574Z,14.40
2022-09-30T14:59:28.405Z,15.20
2022-09-30T15:02:34.128Z,14.23
2022-09-30T15:05:39.276Z,15.50
2022-09-30T15:08:47.010Z,14.95
2022-09-30T15:11:52.345Z,15.07
2022-09-30T15:14:58.340Z,15.38
2022-09-30T15:18:03.616Z,14.88
2022-09-30T15:21:12.126Z,15.13
2022-09-30T15:24:20.763Z,14.20
2022-09-30T15:27:27.564Z,15.63
2022-09-30T15:30:33.378Z,14.95
2022-09-30T15:33:38.349Z,13.98
2022-09-30T15:36:43.575Z,14.45
2022-09-30T15:40:04.460Z,13.32
2022-09-30T15:43:11.697Z,14.15
2022-09-30T15:46:21.695Z,13.85
2022-09-30T15:49:38.286Z,15.00
2022-09-30T15:52:43.881Z,13.52
2022-09-30T15:55:51.946Z,15.50
2022-09-30T15:58:59.932Z,13.45
2022-09-30T16:02:05.453Z,15.57
2022-09-30T16:05:10.719Z,13.85
2022-09-30T16:08:17.917Z,15.32
2022-09-30T16:11:28.552Z,14.43
2022-09-30T16:14:35.745Z,14.07
2022-09-30T16:17:41.982Z,14.52
2022-09-30T16:20:59.469Z,13.23
2022-09-30T16:24:04.633Z,14.13
2022-09-30T16:27:23.651Z,12.63
2022-09-30T16:30:28.745Z,13.25
2022-09-30T16:33:33.692Z,12.07
2022-09-30T16:36:38.798Z,12.57
2022-09-30T16:39:44.079Z,12.65
2022-09-30T16:42:52.027Z,13.65
2022-09-30T16:45:57.235Z,12.02
2022-09-30T16:49:03.062Z,12.18
2022-09-30T16:52:08.469Z,12.43
2022-09-30T16:55:13.461Z,13.32
2022-09-30T16:58:21.243Z,13.02
2022-09-30T17:01:27.097Z,12.57
2022-09-30T17:04:33.749Z,13.18
2022-09-30T17:07:38.842Z,16.33
2022-09-30T17:10:46.370Z,13.73
2022-09-30T17:13:54.055Z,13.40
2022-09-30T17:16:59.150Z,12.77
2022-09-30T17:20:04.885Z,13.15
2022-09-30T17:23:09.990Z,12.38
2022-09-30T17:26:14.989Z,14.10
2022-09-30T17:29:41.832Z,12.95
2022-09-30T17:32:47.395Z,12.88
2022-09-30T17:36:00.048Z,12.43
2022-09-30T17:39:06.489Z,13.20
2022-09-30T17:42:26.970Z,13.75
2022-09-30T17:45:34.847Z,13.65
2022-09-30T17:48:40.646Z,12.63
2022-09-30T17:51:45.705Z,13.43
2022-09-30T17:54:52.401Z,14.35
2022-09-30T17:57:57.588Z,13.95
2022-09-30T18:01:08.376Z,14.30
2022-09-30T18:04:13.748Z,13.23
2022-09-30T18:07:20.578Z,12.85
2022-09-30T18:10:25.813Z,14.07
2022-09-30T18:13:31.349Z,14.48
2022-09-30T18:16:39.217Z,13.75
2022-09-30T18:19:44.744Z,14.90
2022-09-30T18:22:49.997Z,13.35
2022-09-30T18:25:58.097Z,13.65
2022-09-30T18:29:03.191Z,14.40
2022-09-30T18:32:10.953Z,13.23
2022-09-30T18:35:17.454Z,14.55
2022-09-30T18:38:22.540Z,15.13
2022-09-30T18:41:28.438Z,14.75
2022-09-30T18:44:37.644Z,15.27
2022-09-30T18:47:46.389Z,14.98
2022-09-30T18:50:51.859Z,14.23
2022-09-30T18:53:58.424Z,15.02
2022-09-30T18:57:03.542Z,15.45
2022-09-30T19:00:10.539Z,14.50
2022-09-30T19:03:19.296Z,14.02
2022-09-30T19:09:29.129Z,13.95
2022-09-30T19:12:36.103Z,14.30
2022-09-30T19:15:41.546Z,14.85
2022-09-30T19:18:49.749Z,14.05
2022-09-30T19:21:55.353Z,15.20
2022-09-30T19:25:00.641Z,14.05
2022-09-30T19:28:05.629Z,14.60
2022-09-30T19:31:12.070Z,14.20
2022-09-30T19:34:30.491Z,14.75
2022-09-30T19:37:37.491Z,14.65
2022-09-30T19:40:43.668Z,15.13
2022-09-30T19:43:52.023Z,15.18
2022-09-30T19:50:05.659Z,14.77
2022-09-30T19:56:19.649Z,14.80
2022-09-30T19:59:25.098Z,16.35
2022-09-30T20:02:30.430Z,14.15
2022-09-30T20:05:41.316Z,15.93
2022-09-30T20:08:46.873Z,15.52
2022-09-30T20:11:51.916Z,15.13
2022-09-30T20:15:09.536Z,15.35
2022-09-30T20:18:14.514Z,14.77
2022-09-30T20:21:22.162Z,15.35
2022-09-30T20:24:27.251Z,15.00
2022-09-30T20:27:33.315Z,15.55
2022-09-30T20:30:45.792Z,14.73
2022-09-30T20:33:50.985Z,14.68
2022-09-30T20:36:58.692Z,15.60
2022-09-30T20:40:05.030Z,15.88
2022-09-30T20:43:10.348Z,16.95
2022-09-30T20:46:15.454Z,16.00
2022-09-30T20:49:20.624Z,16.52
2022-09-30T20:52:29.203Z,16.15
2022-09-30T20:58:39.617Z,16.20
2022-09-30T21:01:44.687Z,15.93
2022-09-30T21:04:52.609Z,16.17
2022-09-30T21:08:02.338Z,15.88
2022-09-30T21:11:07.807Z,16.50
2022-09-30T21:14:12.761Z,16.05
2022-09-30T21:17:18.048Z,15.85
2022-09-30T21:20:23.030Z,16.33
2022-09-30T21:23:31.426Z,15.82
2022-09-30T21:29:41.293Z,15.82
2022-09-30T21:32:46.730Z,15.50
2022-09-30T21:35:52.489Z,16.50
2022-09-30T21:39:03.202Z,15.85
2022-09-30T21:42:08.312Z,14.90
2022-09-30T21:45:13.722Z,16.27
2022-09-30T21:48:18.967Z,15.15
2022-09-30T21:51:28.468Z,15.80
2022-09-30T21:54:36.050Z,14.98
2022-09-30T21:57:41.162Z,16.10
2022-09-30T22:00:47.318Z,16.30
2022-09-30T22:03:52.788Z,14.70
2022-09-30T22:06:57.739Z,17.05
2022-09-30T22:10:05.352Z,15.95
2022-09-30T22:13:11.957Z,16.58
2022-09-30T22:16:20.007Z,16.25
2022-09-30T22:19:25.359Z,17.52
2022-09-30T22:22:30.467Z,14.48
2022-09-30T22:25:37.996Z,14.80
2022-09-30T22:28:43.383Z,14.55
2022-09-30T22:31:48.345Z,16.17
2022-09-30T22:35:06.014Z,17.35
2022-09-30T22:38:20.334Z,15.77
2022-09-30T22:41:27.939Z,17.45
2022-09-30T22:44:35.204Z,15.70
2022-09-30T22:47:40.640Z,16.63
2022-09-30T22:50:45.724Z,15.95
2022-09-30T22:53:51.015Z,15.20
2022-09-30T22:56:59.583Z,16.23
2022-09-30T23:00:05.679Z,15.82
2022-09-30T23:03:11.622Z,15.00
2022-09-30T23:06:16.733Z,14.80
2022-09-30T23:09:22.092Z,14.57
2022-09-30T23:12:30.161Z,14.85
2022-09-30T23:15:35.407Z,15.25
2022-09-30T23:18:40.760Z,16.35
2022-09-30T23:21:45.769Z,14.40
2022-09-30T23:24:50.878Z,15.32
2022-09-30T23:27:58.609Z,15.45
2022-09-30T23:31:04.124Z,14.32
2022-09-30T23:34:09.472Z,15.65
2022-09-30T23:37:14.521Z,14.00
2022-09-30T23:40:19.736Z,14.00
2022-09-30T23:43:27.426Z,13.88
2022-09-30T23:46:32.498Z,13.63
2022-09-30T23:49:38.619Z,14.63
2022-09-30T23:52:45.430Z,15.27
2022-09-30T23:55:57.218Z,14.48
2022-09-30T23:59:04.789Z,13.75
